Time;durP1;ratioP1;P1;durP2;ratioP2;P2;SDS_P1;SDS_P2;PMS_P1;PMS_P2;Temp;Humidity;BMP_temperature;BMP_pressure;BME280_temperature;BME280_humidity;BME280_pressure;Samples;Min_cycle;Max_cycle;Signal;HPM_P1;HPM_P2
2024/01/23 00:04:47;;;;;;;67.63;20.73;;;-0.30;99.90;;;-2.37;100.00;100911.59;10212929;28;96666;-87
2024/01/23 00:09:51;;;;;;;51.53;16.63;;;-0.30;99.90;;;-2.32;100.00;100908.78;10227078;28;96694;-87
2024/01/23 00:14:57;;;;;;;51.33;16.27;;;-0.30;99.90;;;-2.34;100.00;100903.66;10197710;28;96509;-87
2024/01/23 00:20:03;;;;;;;59.57;17.83;;;-0.30;99.90;;;-2.38;100.00;100880.44;10244534;28;98015;-87
2024/01/23 00:25:08;;;;;;;59.47;19.13;;;-0.30;99.90;;;-2.36;100.00;100886.41;10211529;28;96655;-87
2024/01/23 00:30:12;;;;;;;49.97;15.67;;;-0.30;99.90;;;-2.37;100.00;100863.91;10187732;28;96586;-87
2024/01/23 00:35:16;;;;;;;56.03;16.10;;;-0.30;99.90;;;-2.35;100.00;100868.09;10187383;28;96586;-87
2024/01/23 00:40:20;;;;;;;50.50;17.10;;;-0.30;99.90;;;-2.32;100.00;100860.19;10207744;28;97062;-87
2024/01/23 00:45:24;;;;;;;43.43;15.33;;;-0.30;99.90;;;-2.34;100.00;100811.69;10205532;28;96672;-87
2024/01/23 00:50:27;;;;;;;55.30;18.03;;;-0.30;99.90;;;-2.35;100.00;100825.63;10231804;28;96703;-87
2024/01/23 00:55:31;;;;;;;50.53;17.00;;;-0.30;99.90;;;-2.39;100.00;100850.97;10209739;28;96627;-87
2024/01/23 01:00:35;;;;;;;44.57;15.50;;;-0.30;99.90;;;-2.38;100.00;100880.44;10198440;28;96614;-87
2024/01/23 01:05:39;;;;;;;43.03;13.80;;;-0.30;99.90;;;-2.35;100.00;100896.75;10194025;28;96499;-88
2024/01/23 01:10:43;;;;;;;42.33;14.50;;;-0.30;99.90;;;-2.30;100.00;100875.72;10210482;28;96458;-87
2024/01/23 01:15:46;;;;;;;39.50;14.57;;;-0.30;99.90;;;-2.28;100.00;100879.97;10224817;28;96663;-87
2024/01/23 01:20:50;;;;;;;48.13;16.13;;;-0.20;99.90;;;-2.28;100.00;100889.50;10241418;28;96568;-87
2024/01/23 01:25:53;;;;;;;46.77;15.43;;;-0.20;99.90;;;-2.25;100.00;100884.16;10224364;28;97869;-87
2024/01/23 01:30:56;;;;;;;41.87;14.53;;;-0.20;99.90;;;-2.23;100.00;100871.91;10221075;28;96606;-87
2024/01/23 01:36:00;;;;;;;58.80;19.97;;;-0.20;99.90;;;-2.19;100.00;100868.28;10208769;28;96560;-88
2024/01/23 01:41:03;;;;;;;54.37;16.17;;;-0.20;99.90;;;-2.20;100.00;100856.16;10199296;28;97022;-87
2024/01/23 01:46:23;;;;;;;45.73;15.17;;;-0.20;99.90;;;-2.19;100.00;100855.25;10215230;28;96529;-87
2024/01/23 01:51:30;;;;;;;42.40;13.50;;;-0.10;99.90;;;-2.19;100.00;100847.44;10232198;28;96587;-88
2024/01/23 01:56:35;;;;;;;37.23;13.27;;;-0.10;99.90;;;-2.19;100.00;100818.78;10230592;28;96508;-87
2024/01/23 02:01:39;;;;;;;41.50;13.47;;;-0.10;99.90;;;-2.19;100.00;100817.03;10227092;28;97778;-87
2024/01/23 02:06:43;;;;;;;47.00;15.37;;;-0.10;99.90;;;-2.17;100.00;100807.38;10212139;28;96719;-87
2024/01/23 02:11:58;;;;;;;42.27;14.97;;;-0.10;99.90;;;-2.21;100.00;100808.47;10225785;28;96573;-88
2024/01/23 02:17:02;;;;;;;42.80;14.37;;;0.00;99.90;;;-2.19;100.00;100805.78;10214404;28;96814;-86
2024/01/23 02:22:05;;;;;;;42.50;12.67;;;-0.10;99.90;;;-2.16;100.00;100816.03;10247406;28;96935;-86
2024/01/23 02:27:09;;;;;;;51.13;14.90;;;-0.10;99.90;;;-2.16;100.00;100818.63;10214798;28;96554;-87
2024/01/23 02:32:13;;;;;;;41.87;14.67;;;-0.10;99.90;;;-2.19;100.00;100837.03;10198946;28;96731;-87
2024/01/23 02:37:16;;;;;;;38.00;12.60;;;-0.10;99.90;;;-2.18;100.00;100820.47;10223600;28;97202;-87
2024/01/23 02:42:20;;;;;;;42.83;15.07;;;-0.10;99.90;;;-2.22;100.00;100830.22;10214401;28;96603;-87
2024/01/23 02:47:23;;;;;;;38.10;14.00;;;-0.10;99.90;;;-2.21;100.00;100854.50;10229566;28;97582;-87
2024/01/23 02:52:31;;;;;;;39.37;13.23;;;-0.10;99.90;;;-2.25;100.00;100832.94;10230739;28;96574;-87
2024/01/23 02:57:35;;;;;;;45.20;15.37;;;-0.10;99.90;;;-2.18;100.00;100846.53;10213117;28;96522;-87
2024/01/23 03:02:38;;;;;;;45.70;15.33;;;-0.10;99.90;;;-2.13;100.00;100851.53;10227440;28;98056;-88
2024/01/23 03:07:42;;;;;;;52.57;15.97;;;-0.10;99.90;;;-2.12;100.00;100848.00;10229728;28;96542;-88
2024/01/23 03:12:46;;;;;;;54.97;16.27;;;-0.10;99.90;;;-2.14;100.00;100850.69;10214839;28;97003;-88
2024/01/23 03:17:49;;;;;;;52.30;17.43;;;-0.10;99.90;;;-2.11;100.00;100850.53;10229180;28;96767;-87
2024/01/23 03:22:53;;;;;;;48.30;15.70;;;-0.10;99.90;;;-2.13;100.00;100846.31;10217646;28;96547;-87
2024/01/23 03:27:58;;;;;;;43.27;13.87;;;-0.10;99.90;;;-2.12;100.00;100835.81;10213806;28;96650;-87
2024/01/23 03:33:02;;;;;;;44.83;14.43;;;-0.10;99.90;;;-2.14;100.00;100835.06;10212611;28;96580;-88
2024/01/23 03:38:05;;;;;;;43.53;14.17;;;0.00;99.90;;;-2.11;100.00;100839.25;10213241;28;96525;-87
2024/01/23 03:43:09;;;;;;;45.10;15.07;;;0.00;99.90;;;-2.17;100.00;100809.16;10205345;28;96711;-87
2024/01/23 03:48:13;;;;;;;46.17;13.40;;;0.00;99.90;;;-2.08;100.00;100813.09;10213209;28;96635;-87
2024/01/23 03:53:16;;;;;;;53.77;17.53;;;0.00;99.90;;;-2.09;100.00;100833.09;10238307;28;96504;-87
2024/01/23 03:58:20;;;;;;;47.73;14.67;;;0.00;99.90;;;-2.12;100.00;100822.78;10197002;28;96569;-88
2024/01/23 04:03:23;;;;;;;53.80;16.87;;;0.00;99.90;;;-2.11;100.00;100828.84;10210835;28;97690;-87
2024/01/23 04:08:27;;;;;;;36.90;13.20;;;0.00;99.90;;;-2.09;100.00;100825.28;10211099;28;96557;-87
2024/01/23 04:13:31;;;;;;;44.00;13.77;;;0.00;99.90;;;-2.09;100.00;100829.63;10227198;28;96729;-87
2024/01/23 04:18:35;;;;;;;36.23;11.83;;;0.00;99.90;;;-2.08;100.00;100828.72;10203641;28;96560;-87
2024/01/23 04:23:43;;;;;;;51.23;14.93;;;0.00;99.90;;;-2.08;100.00;100839.13;10197617;28;96674;-88
2024/01/23 04:28:48;;;;;;;40.60;13.40;;;0.00;99.90;;;-2.09;100.00;100850.47;10225259;28;96638;-87
2024/01/23 04:33:53;;;;;;;44.13;13.30;;;0.00;99.90;;;-2.09;100.00;100853.06;10198047;28;96727;-88
2024/01/23 04:38:56;;;;;;;46.43;14.03;;;0.00;99.90;;;-2.09;100.00;100868.69;10210883;28;96598;-87
2024/01/23 04:44:00;;;;;;;53.93;15.60;;;0.00;99.90;;;-2.08;100.00;100839.97;10222547;28;96622;-88
2024/01/23 04:49:03;;;;;;;55.20;18.13;;;0.00;99.90;;;-2.10;100.00;100854.81;10207970;28;96735;-87
2024/01/23 04:54:07;;;;;;;53.67;17.60;;;0.00;99.90;;;-2.04;100.00;100857.16;10206513;28;96576;-86
2024/01/23 04:59:10;;;;;;;42.13;14.73;;;0.00;99.90;;;-2.05;100.00;100865.84;10190820;28;96703;-87
2024/01/23 05:04:14;;;;;;;61.73;18.00;;;0.10;99.90;;;-2.01;100.00;100866.56;10178316;28;96538;-86
2024/01/23 05:09:19;;;;;;;46.77;14.73;;;0.10;99.90;;;-1.97;100.00;100862.91;10241800;28;97780;-88
2024/01/23 05:14:23;;;;;;;57.10;19.20;;;0.10;99.90;;;-1.93;100.00;100874.88;10197892;28;96888;-87
2024/01/23 05:19:28;;;;;;;40.70;14.77;;;0.20;99.90;;;-1.92;100.00;100859.19;10209518;28;96476;-88
2024/01/23 05:24:31;;;;;;;53.83;16.00;;;0.20;99.90;;;-1.92;100.00;100858.31;10241368;28;96590;-88
2024/01/23 05:29:35;;;;;;;42.83;15.40;;;0.20;99.90;;;-1.97;100.00;100855.94;10209058;28;96824;-88
2024/01/23 05:34:39;;;;;;;40.53;14.10;;;0.20;99.90;;;-2.01;100.00;100867.41;10208197;28;96707;-88
2024/01/23 05:39:42;;;;;;;44.23;14.13;;;0.10;99.90;;;-2.05;100.00;100876.28;10206967;28;96684;-87
2024/01/23 05:44:46;;;;;;;58.13;17.87;;;0.10;99.90;;;-2.09;100.00;100889.53;10208984;28;96605;-87
2024/01/23 05:49:50;;;;;;;47.27;15.60;;;0.00;99.90;;;-2.11;100.00;100897.41;10207485;28;97992;-87
2024/01/23 05:54:53;;;;;;;47.27;14.87;;;0.00;99.90;;;-2.14;100.00;100900.16;10208014;28;97541;-87
2024/01/23 05:59:57;;;;;;;52.53;17.33;;;0.00;99.90;;;-2.24;100.00;100912.72;10209380;28;96674;-87
2024/01/23 06:05:01;;;;;;;54.20;16.93;;;0.00;99.90;;;-2.29;100.00;100922.50;10209933;28;96457;-88
2024/01/23 06:10:06;;;;;;;54.90;17.40;;;-0.10;99.90;;;-2.31;100.00;100926.09;10183792;28;96835;-87
2024/01/23 06:15:10;;;;;;;51.20;16.57;;;-0.20;99.90;;;-2.37;100.00;100929.81;10210461;28;96714;-86
2024/01/23 06:20:14;;;;;;;54.40;19.33;;;-0.20;99.90;;;-2.42;100.00;100950.00;10208894;28;96722;-87
2024/01/23 06:25:17;;;;;;;60.90;21.57;;;-0.30;99.90;;;-2.49;100.00;100932.97;10247494;28;96509;-87
2024/01/23 06:30:21;;;;;;;54.97;17.17;;;-0.30;99.90;;;-2.47;100.00;100939.78;10209653;28;96570;-87
2024/01/23 06:35:24;;;;;;;57.53;17.53;;;-0.30;99.90;;;-2.48;100.00;100956.31;10205864;28;96809;-88
2024/01/23 06:40:30;;;;;;;45.73;15.90;;;-0.40;99.90;;;-2.48;100.00;100950.25;10214774;28;96626;-86
2024/01/23 06:45:34;;;;;;;49.03;16.97;;;-0.40;99.90;;;-2.41;100.00;100956.88;10213741;28;96665;-87
2024/01/23 06:50:39;;;;;;;48.33;16.97;;;-0.30;99.90;;;-2.33;100.00;100951.38;10219522;28;96537;-86
2024/01/23 06:55:43;;;;;;;53.47;16.47;;;-0.20;99.90;;;-2.17;100.00;100961.00;10215378;28;96486;-87
2024/01/23 07:00:47;;;;;;;73.20;21.33;;;-0.10;99.90;;;-2.03;100.00;100973.44;10229831;28;96488;-88
2024/01/23 07:05:50;;;;;;;52.60;17.60;;;0.00;99.90;;;-1.99;100.00;100989.75;10244529;28;97887;-88
2024/01/23 07:10:54;;;;;;;54.57;16.97;;;0.10;99.90;;;-1.95;100.00;100999.97;10235767;28;96654;-87
2024/01/23 07:15:58;;;;;;;51.63;17.13;;;0.10;99.90;;;-1.91;100.00;101011.13;10213868;28;96651;-87
2024/01/23 07:21:01;;;;;;;59.03;18.00;;;0.10;99.90;;;-1.88;100.00;101026.59;10227465;28;96672;-87
2024/01/23 07:26:05;;;;;;;54.27;17.13;;;0.10;99.90;;;-1.91;100.00;101024.97;10245632;28;96504;-87
2024/01/23 07:31:11;;;;;;;62.13;18.80;;;0.20;99.90;;;-1.90;100.00;101015.41;10228293;28;96900;-87
2024/01/23 07:36:14;;;;;;;55.73;18.77;;;0.10;99.90;;;-1.92;100.00;101012.00;10232511;28;97050;-87
2024/01/23 07:41:18;;;;;;;89.10;24.90;;;0.10;99.90;;;-1.90;100.00;101007.59;10227347;28;96526;-86
2024/01/23 07:46:22;;;;;;;52.27;19.20;;;0.20;99.90;;;-1.85;100.00;101003.03;10212343;28;96431;-86
2024/01/23 07:51:27;;;;;;;94.63;27.73;;;0.20;99.90;;;-1.77;100.00;101000.91;10213395;28;97194;-86
2024/01/23 07:56:31;;;;;;;56.70;20.60;;;0.30;99.90;;;-1.66;100.00;101003.88;10235188;28;96590;-86
2024/01/23 08:01:34;;;;;;;52.67;18.30;;;0.30;99.90;;;-1.61;100.00;101016.69;10205551;28;96844;-86
2024/01/23 08:06:38;;;;;;;66.43;21.90;;;0.40;99.90;;;-1.32;100.00;101017.94;10239649;28;96783;-86
2024/01/23 08:11:43;;;;;;;200.50;67.43;;;0.50;99.90;;;-0.75;100.00;101028.25;10217783;28;97721;-87
2024/01/23 08:16:47;;;;;;;63.27;20.83;;;0.80;99.90;;;-0.38;100.00;101056.00;10244780;28;96753;-87
2024/01/23 08:21:50;;;;;;;52.70;19.50;;;1.00;99.90;;;-0.34;100.00;101045.31;10210426;28;97880;-86
2024/01/23 08:26:54;;;;;;;49.33;18.87;;;1.20;99.90;;;-0.33;100.00;101038.31;10209560;28;97957;-86
2024/01/23 08:31:57;;;;;;;56.70;20.63;;;1.30;99.90;;;-0.38;100.00;101056.84;10225259;28;96923;-86
2024/01/23 08:37:02;;;;;;;56.63;19.73;;;1.40;99.90;;;-0.41;100.00;101064.84;10209586;28;96579;-87
2024/01/23 08:42:05;;;;;;;50.67;20.87;;;1.50;99.90;;;-0.38;100.00;101064.66;10224827;28;96508;-86
2024/01/23 08:47:09;;;;;;;51.87;20.00;;;1.50;99.90;;;-0.29;100.00;101056.38;10210384;28;96526;-86
2024/01/23 08:52:12;;;;;;;54.07;20.33;;;1.70;99.90;;;-0.09;100.00;101047.53;10210089;28;96459;-86
2024/01/23 08:57:17;;;;;;;59.53;22.13;;;1.90;99.90;;;0.04;100.00;101042.50;10210806;28;96466;-86
2024/01/23 09:02:21;;;;;;;49.67;20.23;;;2.10;99.90;;;0.06;100.00;101042.41;10215518;28;97544;-86
2024/01/23 09:07:25;;;;;;;62.27;22.00;;;2.10;99.90;;;0.32;100.00;101048.91;10171123;28;96483;-86
2024/01/23 09:12:33;;;;;;;45.83;18.17;;;2.30;99.90;;;0.73;100.00;101051.91;10192318;28;97520;-86
2024/01/23 09:17:37;;;;;;;46.37;19.40;;;2.70;99.90;;;1.08;100.00;101055.19;10235993;28;97478;-86
2024/01/23 09:22:41;;;;;;;51.67;22.60;;;3.10;99.90;;;1.28;100.00;101059.28;10195979;28;96467;-85
2024/01/23 09:27:45;;;;;;;52.83;19.70;;;3.30;99.90;;;1.75;100.00;101056.53;10202181;28;96566;-85
2024/01/23 09:32:58;;;;;;;59.17;22.33;;;3.70;99.90;;;1.95;100.00;101072.84;10226557;28;96587;-85
2024/01/23 09:38:03;;;;;;;52.43;20.77;;;3.90;99.90;;;1.88;100.00;101070.59;10265419;28;96542;-85
2024/01/23 09:43:12;;;;;;;46.30;19.77;;;3.90;99.90;;;2.30;100.00;101055.84;10227164;28;96690;-85
2024/01/23 09:48:16;;;;;;;46.97;18.77;;;4.30;99.90;;;2.58;100.00;101061.97;10195623;28;96759;-85
2024/01/23 09:53:23;;;;;;;44.63;19.17;;;4.60;99.90;;;2.57;100.00;101044.56;10223000;28;97200;-85
2024/01/23 09:58:27;;;;;;;53.33;20.97;;;4.60;99.90;;;2.46;100.00;101033.88;10223615;28;96667;-85
2024/01/23 10:03:35;;;;;;;47.90;19.33;;;4.50;99.90;;;2.71;100.00;101049.81;10204574;28;96805;-85
2024/01/23 10:08:40;;;;;;;56.17;20.13;;;4.60;99.90;;;3.05;100.00;101058.13;10231421;28;96500;-85
2024/01/23 10:13:43;;;;;;;40.47;18.80;;;4.70;99.90;;;3.04;100.00;101056.47;10214791;28;96709;-85
2024/01/23 10:18:48;;;;;;;49.70;20.77;;;4.90;99.90;;;2.80;100.00;101030.81;10214958;28;96476;-85
2024/01/23 10:23:53;;;;;;;43.33;18.67;;;4.70;99.90;;;2.92;100.00;101035.28;10215360;28;96552;-85
2024/01/23 10:28:57;;;;;;;41.67;17.43;;;4.90;99.90;;;3.45;100.00;101030.13;10229238;28;97967;-85
2024/01/23 10:34:01;;;;;;;42.27;18.97;;;5.40;99.90;;;4.34;100.00;101032.78;10240548;28;96638;-85
2024/01/23 10:39:05;;;;;;;36.90;16.90;;;6.20;99.90;;;5.13;100.00;101014.84;10193589;28;96574;-85
2024/01/23 10:44:12;;;;;;;49.00;21.80;;;6.90;99.90;;;5.49;99.77;101001.56;10215851;28;96604;-83
2024/01/23 10:49:18;;;;;;;49.90;19.90;;;7.20;99.90;;;5.37;95.15;101003.31;10228784;28;96797;-83
2024/01/23 10:54:30;;;;;;;80.17;36.23;;;7.10;99.90;;;5.49;94.13;100990.19;10229469;28;96660;-83
2024/01/23 10:59:37;;;;;;;47.03;22.50;;;7.40;99.90;;;6.38;96.36;100994.75;10226527;28;96670;-84
2024/01/23 11:04:40;;;;;;;25.37;12.27;;;8.30;99.90;;;7.17;84.81;100995.38;10228978;28;96570;-83
2024/01/23 11:11:04;;;;;;;20.77;10.93;;;9.10;99.90;;;7.07;76.05;100981.22;10213886;28;96618;-83
2024/01/23 11:16:09;;;;;;;21.30;10.47;;;9.20;99.90;;;6.59;80.38;100981.59;10098921;28;96548;-83
2024/01/23 11:21:14;;;;;;;15.93;8.10;;;8.70;99.90;;;6.70;80.11;100974.50;10229962;28;97408;-83
2024/01/23 11:26:19;;;;;;;16.80;9.30;;;8.70;99.90;;;6.56;81.15;100961.59;10212804;28;96651;-83
2024/01/23 11:31:26;;;;;;;20.60;10.37;;;8.50;99.90;;;6.24;83.01;100950.09;10211960;28;97113;-83
2024/01/23 11:36:30;;;;;;;23.13;11.03;;;8.10;99.90;;;5.91;84.12;100949.16;10227281;28;96527;-84
2024/01/23 11:41:36;;;;;;;20.47;10.57;;;7.70;99.90;;;5.66;87.07;100959.91;10227470;28;96746;-83
2024/01/23 11:46:41;;;;;;;21.93;9.90;;;7.40;99.90;;;5.58;89.74;100957.84;10242819;28;96455;-84
2024/01/23 11:51:48;;;;;;;20.27;8.83;;;7.30;99.90;;;5.60;89.40;100969.13;10227859;28;96495;-84
2024/01/23 11:56:52;;;;;;;21.40;10.37;;;7.30;99.90;;;5.71;90.25;100965.66;10244046;28;98279;-84
2024/01/23 12:01:56;;;;;;;20.07;9.83;;;7.40;99.90;;;5.80;90.55;100967.59;10211200;28;96549;-84
2024/01/23 12:07:00;;;;;;;17.20;8.43;;;7.50;99.90;;;5.87;nan;100974.06;10243482;28;96508;-84
2024/01/23 12:12:06;;;;;;;23.83;8.27;;;7.50;99.90;;;5.99;90.49;100977.56;10239130;28;96515;-84
2024/01/23 12:17:10;;;;;;;22.70;10.43;;;7.70;99.90;;;6.08;90.36;100982.16;10212302;28;96469;-84
2024/01/23 12:22:15;;;;;;;18.13;8.60;;;7.80;99.90;;;6.27;87.88;100992.94;10227152;28;96570;-85
2024/01/23 12:27:25;;;;;;;15.53;7.13;;;8.00;99.90;;;6.34;88.73;100995.94;10211657;28;96484;-84
2024/01/23 12:32:38;;;;;;;16.20;6.63;;;8.10;99.90;;;6.31;87.48;101004.94;10225801;28;97124;-84
2024/01/23 12:37:41;;;;;;;15.60;7.03;;;8.10;99.90;;;6.11;88.14;100997.72;10218762;28;96619;-84
2024/01/23 12:42:46;;;;;;;12.83;7.20;;;7.90;99.90;;;5.95;88.17;101011.28;10213024;28;96419;-84
2024/01/23 12:47:50;;;;;;;14.27;6.70;;;7.80;99.90;;;5.87;88.75;101005.72;10218755;28;97081;-84
2024/01/23 12:52:56;;;;;;;14.20;7.43;;;7.60;99.90;;;5.72;88.81;101001.63;10242520;28;96656;-84
2024/01/23 12:58:01;;;;;;;21.90;11.23;;;7.50;99.90;;;5.48;89.95;101017.50;10231743;28;96526;-84
2024/01/23 13:03:06;;;;;;;19.00;8.80;;;7.30;99.90;;;5.37;91.28;101020.94;10222972;28;98050;-84
2024/01/23 13:08:10;;;;;;;18.40;8.47;;;7.20;99.90;;;5.35;92.09;101018.41;10232423;28;96519;-84
2024/01/23 13:13:14;;;;;;;14.77;7.20;;;7.20;99.90;;;5.56;92.42;101030.94;10224873;28;96546;-85
2024/01/23 13:18:21;;;;;;;12.87;6.63;;;7.30;99.90;;;5.71;91.62;101021.03;10215144;28;97992;-85
2024/01/23 13:23:25;;;;;;;13.83;6.30;;;7.40;99.90;;;5.81;91.09;101043.94;10225695;28;97843;-85
2024/01/23 13:28:29;;;;;;;15.03;7.50;;;7.60;99.90;;;5.75;89.88;101038.28;10208551;28;96527;-85
2024/01/23 13:33:32;;;;;;;16.43;8.37;;;7.50;99.90;;;5.69;90.29;101060.69;10208802;28;96481;-85
2024/01/23 13:38:37;;;;;;;17.43;8.93;;;7.50;99.90;;;5.61;89.97;101060.44;10203440;28;96678;-85
2024/01/23 13:43:51;;;;;;;13.73;7.63;;;7.40;99.90;;;5.48;90.90;101044.69;10214123;28;97072;-85
2024/01/23 13:48:56;;;;;;;15.00;7.97;;;7.30;99.90;;;5.47;91.50;101064.13;10228826;28;96643;-85
2024/01/23 13:54:03;;;;;;;14.37;7.43;;;7.20;99.90;;;5.42;nan;101058.34;10230302;28;97776;-85
2024/01/23 13:59:06;;;;;;;12.17;5.73;;;7.20;99.90;;;5.47;90.91;101069.38;10232637;28;96874;-85
2024/01/23 14:04:14;;;;;;;26.10;11.80;;;7.20;99.90;;;5.47;90.98;101072.03;10230780;28;96937;-85
2024/01/23 14:09:17;;;;;;;11.90;6.80;;;7.20;99.90;;;5.50;91.49;101098.16;10229017;28;96542;-85
2024/01/23 14:14:21;;;;;;;14.33;6.43;;;7.30;99.90;;;5.45;91.62;101091.53;10231078;28;96580;-85
2024/01/23 14:19:25;;;;;;;12.07;5.27;;;7.30;99.90;;;5.48;92.80;101110.59;10226902;28;96563;-85
2024/01/23 14:24:28;;;;;;;14.00;7.17;;;7.30;99.90;;;5.45;92.09;101117.88;10216442;28;97704;-85
2024/01/23 14:29:32;;;;;;;19.90;8.50;;;7.30;99.90;;;5.36;91.68;101132.59;10227612;28;97609;-85
2024/01/23 14:34:36;;;;;;;17.50;8.63;;;7.20;99.90;;;5.31;92.74;101137.34;10228058;28;96688;-85
2024/01/23 14:39:40;;;;;;;16.37;8.07;;;7.20;99.90;;;5.20;92.94;101132.00;10206228;28;96728;-85
2024/01/23 14:44:46;;;;;;;17.67;8.43;;;7.00;99.90;;;5.05;93.47;101155.88;10226667;28;97764;-84
2024/01/23 14:49:50;;;;;;;17.83;6.80;;;6.90;99.90;;;4.82;94.27;101164.56;10214327;28;96583;-84
2024/01/23 14:54:54;;;;;;;14.07;7.70;;;6.70;99.90;;;4.63;95.40;101164.16;10246376;28;96561;-84
2024/01/23 14:59:58;;;;;;;18.57;8.50;;;6.50;99.90;;;4.47;97.79;101181.00;10228439;28;96586;-84
2024/01/23 15:05:03;;;;;;;18.47;8.50;;;6.30;99.90;;;4.35;98.58;101196.78;10229336;28;96594;-84
2024/01/23 15:10:07;;;;;;;14.87;7.13;;;6.20;99.90;;;4.28;100.00;101194.56;10214890;28;96443;-84
2024/01/23 15:15:11;;;;;;;21.97;10.43;;;6.10;99.90;;;4.25;100.00;101196.53;10253246;28;96536;-84
2024/01/23 15:20:19;;;;;;;31.67;13.67;;;6.10;99.90;;;4.09;100.00;101180.13;10229258;28;97808;-84
2024/01/23 15:25:22;;;;;;;20.60;9.50;;;6.00;99.90;;;3.94;100.00;101193.31;10233743;28;96519;-84
2024/01/23 15:30:29;;;;;;;18.70;9.70;;;5.80;99.90;;;3.86;100.00;101179.00;10213365;28;97080;-84
2024/01/23 15:35:33;;;;;;;21.13;10.43;;;5.70;99.90;;;3.78;100.00;101192.66;10228606;28;96623;-84
2024/01/23 15:40:37;;;;;;;21.63;11.37;;;5.60;99.90;;;3.70;100.00;101214.16;10212172;28;96672;-84
2024/01/23 15:45:41;;;;;;;25.10;10.80;;;5.50;99.90;;;3.68;100.00;101220.47;10213203;28;96561;-84
2024/01/23 15:50:47;;;;;;;24.53;11.70;;;5.50;99.90;;;3.65;100.00;101233.81;10225979;28;96598;-84
2024/01/23 15:55:51;;;;;;;27.43;13.47;;;5.50;99.90;;;3.64;100.00;101232.13;10213704;28;96537;-84
2024/01/23 16:00:54;;;;;;;25.77;10.90;;;5.50;99.90;;;3.61;100.00;101251.56;10243336;28;96573;-84
2024/01/23 16:05:58;;;;;;;23.70;10.50;;;5.50;99.90;;;3.58;100.00;101259.63;10212682;28;96618;-84
2024/01/23 16:11:01;;;;;;;21.43;9.73;;;5.40;99.90;;;3.53;100.00;101269.59;10211733;28;96556;-85
2024/01/23 16:16:06;;;;;;;23.37;10.43;;;5.40;99.90;;;3.45;100.00;101280.59;10243643;28;96519;-85
2024/01/23 16:21:09;;;;;;;23.23;10.63;;;5.30;99.90;;;3.31;100.00;101285.88;10212201;28;96603;-85
2024/01/23 16:26:15;;;;;;;20.43;9.60;;;5.20;99.90;;;3.14;100.00;101305.28;10246085;28;97915;-85
2024/01/23 16:31:18;;;;;;;19.30;9.07;;;5.10;99.90;;;2.98;100.00;101314.16;10227789;28;96548;-85
2024/01/23 16:36:22;;;;;;;30.43;12.47;;;4.90;99.90;;;2.77;100.00;101332.91;10213185;28;96520;-84
2024/01/23 16:41:27;;;;;;;22.27;10.97;;;4.70;99.90;;;2.60;100.00;101339.13;10204844;28;97114;-85
2024/01/23 16:46:31;;;;;;;33.20;14.70;;;4.60;99.90;;;2.48;100.00;101345.09;10226070;28;96585;-85
2024/01/23 16:51:35;;;;;;;45.37;20.10;;;4.50;99.90;;;2.40;100.00;101347.31;10208376;28;97018;-85
2024/01/23 16:56:39;;;;;;;38.47;18.50;;;4.40;99.90;;;2.17;100.00;101359.09;10229346;28;97819;-84
2024/01/23 17:01:43;;;;;;;41.93;17.53;;;4.20;99.90;;;1.90;100.00;101360.59;10221634;28;96555;-84
2024/01/23 17:06:47;;;;;;;39.37;16.80;;;3.90;99.90;;;1.61;100.00;101368.25;10215502;28;96535;-84
2024/01/23 17:11:51;;;;;;;37.23;15.50;;;3.70;99.90;;;1.36;100.00;101373.94;10199632;28;97877;-84
2024/01/23 17:16:54;;;;;;;34.00;15.47;;;3.40;99.90;;;1.14;100.00;101387.31;10210645;28;96596;-86
2024/01/23 17:21:58;;;;;;;35.17;16.80;;;3.20;99.90;;;1.02;100.00;101380.06;10232283;28;96589;-85
2024/01/23 17:27:02;;;;;;;35.83;15.93;;;3.10;99.90;;;0.84;100.00;101387.09;10199311;28;96578;-85
2024/01/23 17:32:06;;;;;;;38.20;16.83;;;2.90;99.90;;;0.65;100.00;101383.69;10231456;28;96551;-83
2024/01/23 17:37:11;;;;;;;35.73;16.33;;;2.70;99.90;;;0.48;100.00;101394.97;10224845;28;96642;-84
2024/01/23 17:42:14;;;;;;;47.70;19.90;;;2.60;99.90;;;0.32;100.00;101394.88;10207538;28;96604;-84
2024/01/23 17:47:23;;;;;;;62.73;27.13;;;2.40;99.90;;;0.20;100.00;101380.59;10198335;28;96604;-84
2024/01/23 17:52:34;;;;;;;92.97;41.57;;;2.30;99.90;;;0.19;100.00;101360.63;10228680;28;96544;-84
2024/01/23 17:57:38;;;;;;;51.47;22.60;;;2.20;99.90;;;0.21;100.00;101387.53;10225179;28;98070;-85
2024/01/23 18:02:41;;;;;;;67.80;27.40;;;2.20;99.90;;;0.22;100.00;101393.59;10216934;28;96638;-85
2024/01/23 18:07:45;;;;;;;40.57;20.27;;;2.20;99.90;;;0.11;100.00;101386.25;10205571;28;96579;-85
2024/01/23 18:12:48;;;;;;;51.87;21.10;;;2.10;99.90;;;-0.04;100.00;101379.16;10250947;28;96655;-85
2024/01/23 18:17:52;;;;;;;55.27;21.83;;;2.00;99.90;;;-0.12;100.00;101383.84;10220542;28;96991;-85
2024/01/23 18:22:55;;;;;;;54.47;24.20;;;1.90;99.90;;;-0.20;100.00;101391.22;10206900;28;96631;-85
2024/01/23 18:27:59;;;;;;;62.83;23.77;;;1.90;99.90;;;-0.28;100.00;101379.34;10242247;28;96810;-85
2024/01/23 18:33:04;;;;;;;50.33;20.23;;;1.80;99.90;;;-0.32;100.00;101390.00;10218895;28;96537;-85
2024/01/23 18:38:07;;;;;;;61.93;23.37;;;1.70;99.90;;;-0.23;100.00;101378.31;10214532;28;96575;-85
2024/01/23 18:43:11;;;;;;;54.13;22.07;;;1.70;99.90;;;-0.20;100.00;101370.31;10214691;28;96597;-84
2024/01/23 18:48:14;;;;;;;61.50;24.07;;;1.80;99.90;;;-0.06;100.00;101376.63;10255720;28;96636;-83
2024/01/23 18:53:18;;;;;;;51.47;20.10;;;1.90;99.90;;;0.02;100.00;101381.47;10219719;28;98525;-83
2024/01/23 18:58:21;;;;;;;48.93;21.67;;;2.00;99.90;;;0.08;100.00;101385.56;10204018;28;96770;-83
2024/01/23 19:03:25;;;;;;;41.53;18.47;;;2.10;99.90;;;0.15;100.00;101389.59;10205397;28;96559;-83
2024/01/23 19:08:28;;;;;;;44.27;15.10;;;2.10;99.90;;;0.12;100.00;101416.72;10211060;28;96595;-83
2024/01/23 19:13:32;;;;;;;38.07;17.10;;;2.10;99.90;;;0.04;100.00;101402.31;10221829;28;96575;-83
2024/01/23 19:18:38;;;;;;;38.90;16.27;;;2.10;99.90;;;-0.08;100.00;101401.09;10213160;28;97293;-83
2024/01/23 19:23:42;;;;;;;30.07;12.97;;;2.00;99.90;;;-0.09;100.00;101421.16;10221757;28;96655;-83
2024/01/23 19:28:46;;;;;;;25.27;11.60;;;1.90;99.90;;;-0.08;100.00;101433.31;10232180;28;98225;-83
2024/01/23 19:33:50;;;;;;;21.70;9.83;;;1.90;99.90;;;-0.02;100.00;101421.72;10222713;28;98016;-85
2024/01/23 19:38:55;;;;;;;23.77;8.90;;;1.90;99.90;;;-0.01;100.00;101437.31;10211569;28;96770;-85
2024/01/23 19:43:59;;;;;;;28.17;10.47;;;2.00;99.90;;;-0.01;100.00;101439.94;10223925;28;97229;-84
2024/01/23 19:49:02;;;;;;;33.00;10.10;;;2.00;99.90;;;0.03;100.00;101439.81;10235084;28;96789;-84
2024/01/23 19:54:06;;;;;;;29.43;11.57;;;2.00;99.90;;;0.02;100.00;101449.41;10217566;28;96549;-84
2024/01/23 19:59:10;;;;;;;38.47;13.70;;;2.00;99.90;;;0.06;100.00;101437.91;10228060;28;96464;-84
2024/01/23 20:04:16;;;;;;;28.53;10.13;;;2.00;99.90;;;0.10;100.00;101429.00;10225835;28;97855;-85
2024/01/23 20:09:20;;;;;;;32.13;11.80;;;2.10;99.90;;;0.23;100.00;101437.97;10188470;28;96503;-85
2024/01/23 20:14:25;;;;;;;30.47;11.90;;;2.20;99.90;;;0.26;100.00;101452.69;10223080;28;96637;-85
2024/01/23 20:19:32;;;;;;;34.63;12.90;;;2.30;99.90;;;0.25;100.00;101464.91;10252974;28;96699;-85
2024/01/23 20:24:36;;;;;;;36.13;13.40;;;2.30;99.90;;;0.26;100.00;101474.44;10211932;28;96561;-85
2024/01/23 20:29:39;;;;;;;34.83;13.30;;;2.30;99.90;;;0.20;100.00;101472.09;10211147;28;96659;-84
2024/01/23 20:34:43;;;;;;;38.83;14.73;;;2.20;99.90;;;0.13;100.00;101472.47;10224679;28;97993;-84
2024/01/23 20:39:48;;;;;;;37.03;15.23;;;2.20;99.90;;;0.12;100.00;101474.22;10236708;28;96921;-84